createdAt,value
2023-08-13T00:00:02.750Z,87.12
2023-08-13T00:05:11.462Z,87.20
2023-08-13T00:07:38.677Z,85.68
2023-08-13T00:10:07.130Z,86.87
2023-08-13T00:12:33.995Z,87.01
2023-08-13T00:15:02.181Z,86.22
2023-08-13T00:17:29.332Z,87.84
2023-08-13T00:19:56.296Z,88.17
2023-08-13T00:22:23.537Z,87.81
2023-08-13T00:24:52.563Z,89.76
2023-08-13T00:27:23.488Z,90.34
2023-08-13T00:29:51.042Z,90.83
2023-08-13T00:32:18.070Z,90.29
2023-08-13T00:34:45.023Z,89.87
2023-08-13T00:37:12.016Z,89.83
2023-08-13T00:39:38.677Z,92.16
2023-08-13T00:42:05.525Z,91.84
2023-08-13T00:44:32.251Z,92.89
2023-08-13T00:46:59.089Z,91.88
2023-08-13T00:49:26.017Z,92.05
2023-08-13T00:51:53.038Z,89.25
2023-08-13T00:54:20.027Z,89.43
2023-08-13T00:56:48.255Z,92.22
2023-08-13T00:59:15.632Z,94.09
2023-08-13T01:01:43.860Z,96.01
2023-08-13T01:04:11.089Z,95.46
2023-08-13T01:06:50.988Z,91.18
2023-08-13T01:09:23.989Z,94.23
2023-08-13T01:12:01.391Z,94.51
2023-08-13T01:14:34.199Z,94.41
2023-08-13T01:17:01.758Z,94.53
2023-08-13T01:19:28.927Z,95.23
2023-08-13T01:21:55.785Z,96.71
2023-08-13T01:24:22.913Z,94.11
2023-08-13T01:26:54.009Z,98.61
2023-08-13T01:29:28.015Z,97.22
2023-08-13T01:31:58.915Z,97.26
2023-08-13T01:34:26.466Z,97.44
2023-08-13T01:36:54.188Z,96.38
2023-08-13T01:39:21.387Z,96.81
2023-08-13T01:41:56.123Z,94.48
2023-08-13T01:44:23.035Z,94.59
2023-08-13T01:46:50.492Z,95.31
2023-08-13T01:49:17.229Z,98.30
2023-08-13T01:52:09.531Z,97.69
2023-08-13T01:54:37.013Z,97.70
2023-08-13T01:57:03.960Z,99.74
2023-08-13T01:59:33.217Z,100.00
2023-08-13T02:02:03.532Z,99.85
2023-08-13T02:04:30.468Z,98.44
2023-08-13T02:07:14.700Z,98.51
2023-08-13T02:09:50.659Z,99.16
2023-08-13T02:12:17.636Z,99.06
2023-08-13T02:14:53.724Z,100.00
2023-08-13T02:17:20.605Z,100.00
2023-08-13T02:19:56.728Z,100.00
2023-08-13T02:22:23.543Z,100.00
2023-08-13T02:24:50.713Z,100.00
2023-08-13T02:27:17.494Z,100.00
2023-08-13T02:29:44.365Z,100.00
2023-08-13T02:32:12.108Z,100.00
2023-08-13T02:34:47.022Z,100.00
2023-08-13T02:37:14.004Z,100.00
2023-08-13T02:39:40.955Z,100.00
2023-08-13T02:42:07.816Z,100.00
2023-08-13T02:44:34.510Z,100.00
2023-08-13T02:47:01.525Z,100.00
2023-08-13T02:49:28.632Z,100.00
2023-08-13T02:51:55.328Z,100.00
2023-08-13T02:54:22.059Z,100.00
2023-08-13T02:56:48.909Z,100.00
2023-08-13T02:59:15.628Z,100.00
2023-08-13T03:01:42.770Z,100.00
2023-08-13T03:04:09.634Z,100.00
2023-08-13T03:06:38.279Z,100.00
2023-08-13T03:09:06.115Z,100.00
2023-08-13T03:11:33.108Z,100.00
2023-08-13T03:14:00.604Z,100.00
2023-08-13T03:16:27.511Z,100.00
2023-08-13T03:19:08.984Z,100.00
2023-08-13T03:21:37.962Z,100.00
2023-08-13T03:24:09.605Z,100.00
2023-08-13T03:26:40.224Z,100.00
2023-08-13T03:29:07.879Z,100.00
2023-08-13T03:31:38.575Z,100.00
2023-08-13T03:34:05.408Z,100.00
2023-08-13T03:36:32.735Z,100.00
2023-08-13T03:39:00.190Z,100.00
2023-08-13T03:41:27.610Z,100.00
2023-08-13T03:43:54.901Z,100.00
2023-08-13T03:46:22.082Z,100.00
2023-08-13T03:48:49.305Z,100.00
2023-08-13T03:51:16.741Z,99.71
2023-08-13T03:53:44.292Z,97.46
2023-08-13T03:56:12.074Z,97.07
2023-08-13T03:58:39.863Z,98.17
2023-08-13T04:01:07.714Z,100.00
2023-08-13T04:03:35.278Z,100.00
2023-08-13T04:06:02.016Z,100.00
2023-08-13T04:08:28.699Z,100.00
2023-08-13T04:10:55.951Z,100.00
2023-08-13T04:13:22.746Z,100.00
2023-08-13T04:15:50.942Z,100.00
2023-08-13T04:18:17.775Z,100.00
2023-08-13T04:20:44.455Z,100.00
2023-08-13T04:23:17.499Z,100.00
2023-08-13T04:25:44.228Z,100.00
2023-08-13T04:28:10.881Z,100.00
2023-08-13T04:30:37.550Z,100.00
2023-08-13T04:33:04.411Z,100.00
2023-08-13T04:35:34.082Z,100.00
2023-08-13T04:38:00.761Z,100.00
2023-08-13T04:40:27.448Z,100.00
2023-08-13T04:42:54.089Z,100.00
2023-08-13T04:45:20.764Z,100.00
2023-08-13T04:47:47.742Z,100.00
2023-08-13T04:50:14.830Z,100.00
2023-08-13T04:52:41.536Z,100.00
2023-08-13T04:55:08.470Z,96.59
2023-08-13T04:57:35.117Z,96.01
2023-08-13T05:00:13.043Z,93.58
2023-08-13T05:02:40.065Z,93.98
2023-08-13T05:05:06.892Z,90.17
2023-08-13T05:07:33.659Z,88.98
2023-08-13T05:10:00.552Z,84.62
2023-08-13T05:12:27.234Z,85.16
2023-08-13T05:14:54.218Z,83.85
2023-08-13T05:17:21.633Z,88.34
2023-08-13T05:19:48.584Z,85.07
2023-08-13T05:22:15.616Z,81.49
2023-08-13T05:24:42.743Z,74.82
2023-08-13T05:27:09.709Z,79.37
2023-08-13T05:29:36.690Z,78.37
2023-08-13T05:32:03.646Z,75.97
2023-08-13T05:34:30.471Z,74.60
2023-08-13T05:36:57.222Z,78.82
2023-08-13T05:39:24.125Z,78.64
2023-08-13T05:41:50.802Z,77.93
2023-08-13T05:44:17.605Z,75.07
2023-08-13T05:46:44.356Z,79.56
2023-08-13T05:49:11.020Z,74.87
2023-08-13T05:51:37.667Z,73.23
2023-08-13T05:54:04.407Z,74.71
2023-08-13T05:56:31.048Z,77.14
2023-08-13T05:58:57.707Z,72.30
2023-08-13T06:01:24.468Z,68.61
2023-08-13T06:03:51.211Z,66.83
2023-08-13T06:06:17.956Z,68.33
2023-08-13T06:08:44.519Z,69.24
2023-08-13T06:11:11.135Z,69.17
2023-08-13T06:13:40.374Z,66.12
2023-08-13T06:16:07.512Z,63.81
2023-08-13T06:18:35.472Z,62.02
2023-08-13T06:21:05.098Z,63.83
2023-08-13T06:23:32.058Z,62.69
2023-08-13T06:25:58.916Z,62.41
2023-08-13T06:28:25.585Z,60.50
2023-08-13T06:30:52.281Z,62.12
2023-08-13T06:33:18.955Z,59.98
2023-08-13T06:35:46.068Z,58.76
2023-08-13T06:38:12.676Z,62.29
2023-08-13T06:40:39.298Z,63.00
2023-08-13T06:43:06.050Z,60.74
2023-08-13T06:45:32.703Z,59.68
2023-08-13T06:47:59.863Z,58.98
2023-08-13T06:50:28.212Z,56.41
2023-08-13T06:52:55.118Z,57.04
2023-08-13T06:55:21.889Z,56.17
2023-08-13T06:57:48.557Z,57.52
2023-08-13T07:00:16.270Z,53.29
2023-08-13T07:02:43.547Z,51.01
2023-08-13T07:05:10.946Z,53.15
2023-08-13T07:07:37.576Z,51.63
2023-08-13T07:10:05.400Z,52.25
2023-08-13T07:12:31.964Z,55.51
2023-08-13T07:14:58.840Z,52.37
2023-08-13T07:17:25.621Z,50.94
2023-08-13T07:19:52.326Z,50.65
2023-08-13T07:22:20.637Z,51.31
2023-08-13T07:24:47.267Z,52.68
2023-08-13T07:27:13.964Z,52.45
2023-08-13T07:29:40.571Z,52.72
2023-08-13T07:32:07.416Z,50.53
2023-08-13T07:34:34.142Z,52.34
2023-08-13T07:37:00.870Z,51.28
2023-08-13T07:39:27.663Z,52.32
2023-08-13T07:41:54.848Z,51.63
2023-08-13T07:44:21.487Z,50.04
2023-08-13T07:46:51.979Z,51.27
2023-08-13T07:49:18.655Z,50.31
2023-08-13T07:51:45.286Z,48.48
2023-08-13T07:54:12.088Z,48.45
2023-08-13T07:56:41.018Z,50.45
2023-08-13T08:02:07.711Z,48.03
2023-08-13T08:04:35.208Z,47.52
2023-08-13T08:07:06.794Z,48.54
2023-08-13T08:09:33.611Z,47.44
2023-08-13T08:12:00.253Z,46.61
2023-08-13T08:14:26.889Z,50.23
2023-08-13T08:16:58.786Z,47.48
2023-08-13T08:19:25.518Z,48.42
2023-08-13T08:21:52.390Z,48.18
2023-08-13T08:24:19.042Z,43.78
2023-08-13T08:26:45.693Z,42.21
2023-08-13T08:29:12.469Z,43.08
2023-08-13T08:31:39.044Z,45.46
2023-08-13T08:34:05.765Z,43.32
2023-08-13T08:36:32.490Z,45.35
2023-08-13T08:38:59.273Z,44.67
2023-08-13T08:41:28.777Z,42.77
2023-08-13T08:43:55.911Z,43.03
2023-08-13T08:46:23.586Z,42.17
2023-08-13T08:48:50.845Z,40.83
2023-08-13T08:51:17.820Z,40.40
2023-08-13T08:53:45.837Z,39.98
2023-08-13T08:56:12.457Z,41.90
2023-08-13T08:58:39.071Z,41.72
2023-08-13T09:01:06.640Z,41.48
2023-08-13T09:03:33.338Z,42.05
2023-08-13T09:06:11.716Z,41.86
2023-08-13T09:08:46.629Z,41.24
2023-08-13T09:11:13.461Z,42.35
2023-08-13T09:13:59.344Z,41.50
2023-08-13T09:16:26.237Z,41.02
2023-08-13T09:19:04.176Z,40.67
2023-08-13T09:21:35.358Z,40.01
2023-08-13T09:24:02.014Z,41.82
2023-08-13T09:26:29.468Z,39.99
2023-08-13T09:28:56.160Z,38.77
2023-08-13T09:31:26.187Z,39.74
2023-08-13T09:33:52.953Z,38.17
2023-08-13T09:36:19.615Z,39.17
2023-08-13T09:38:46.275Z,38.74
2023-08-13T09:41:15.121Z,38.40
2023-08-13T09:43:44.145Z,36.95
2023-08-13T09:46:13.253Z,37.00
2023-08-13T09:48:41.110Z,38.65
2023-08-13T09:51:08.463Z,37.51
2023-08-13T09:53:36.253Z,37.56
2023-08-13T09:56:03.521Z,35.21
2023-08-13T09:58:31.245Z,35.49
2023-08-13T10:00:58.205Z,36.37
2023-08-13T10:03:25.511Z,36.62
2023-08-13T10:05:53.231Z,36.78
2023-08-13T10:08:20.273Z,36.58
2023-08-13T10:10:47.108Z,37.98
2023-08-13T10:13:13.871Z,37.59
2023-08-13T10:15:41.109Z,37.96
2023-08-13T10:18:07.877Z,39.50
2023-08-13T10:20:34.647Z,37.41
2023-08-13T10:23:02.897Z,38.70
2023-08-13T10:25:30.564Z,36.15
2023-08-13T10:27:57.705Z,38.11
2023-08-13T10:30:24.590Z,36.75
2023-08-13T10:33:04.711Z,37.82
2023-08-13T10:35:31.514Z,37.64
2023-08-13T10:38:00.429Z,36.31
2023-08-13T10:40:27.563Z,36.70
2023-08-13T10:42:57.710Z,34.26
2023-08-13T10:45:25.920Z,36.74
2023-08-13T10:47:57.244Z,35.15
2023-08-13T10:50:24.607Z,34.68
2023-08-13T10:52:56.332Z,35.81
2023-08-13T10:55:23.578Z,33.63
2023-08-13T10:57:53.621Z,36.04
2023-08-13T11:00:22.692Z,32.75
2023-08-13T11:03:01.754Z,34.65
2023-08-13T11:05:40.024Z,31.98
2023-08-13T11:08:09.919Z,33.93
2023-08-13T11:10:39.524Z,31.94
2023-08-13T11:13:15.525Z,34.29
2023-08-13T11:15:54.496Z,34.57
2023-08-13T11:18:22.694Z,34.24
2023-08-13T11:20:50.796Z,32.22
2023-08-13T11:23:18.827Z,34.63
2023-08-13T11:25:57.391Z,32.17
2023-08-13T11:28:28.911Z,32.19
2023-08-13T11:31:05.834Z,32.78
2023-08-13T11:33:47.553Z,33.84
2023-08-13T11:36:15.918Z,32.92
2023-08-13T11:38:44.199Z,31.99
2023-08-13T11:41:31.749Z,32.27
2023-08-13T11:44:00.749Z,33.50
2023-08-13T11:46:27.526Z,33.00
2023-08-13T11:48:54.922Z,32.96
2023-08-13T11:51:25.585Z,31.72
2023-08-13T11:53:52.658Z,32.40
2023-08-13T11:56:20.202Z,33.17
2023-08-13T11:58:47.224Z,32.52
2023-08-13T12:01:14.814Z,31.84
2023-08-13T12:03:42.779Z,32.12
2023-08-13T12:06:09.830Z,34.55
2023-08-13T12:08:36.575Z,33.97
2023-08-13T12:11:03.321Z,33.89
2023-08-13T12:13:30.352Z,33.50
2023-08-13T12:15:57.261Z,33.34
2023-08-13T12:18:23.934Z,32.84
2023-08-13T12:20:50.531Z,32.91
2023-08-13T12:23:17.444Z,32.29
2023-08-13T12:25:46.757Z,31.78
2023-08-13T12:28:14.733Z,32.85
2023-08-13T12:30:41.420Z,31.99
2023-08-13T12:33:08.588Z,32.63
2023-08-13T12:35:35.485Z,31.12
2023-08-13T12:38:02.071Z,30.53
2023-08-13T12:40:44.548Z,30.53
2023-08-13T12:43:11.287Z,31.39
2023-08-13T12:45:38.141Z,31.51
2023-08-13T12:48:05.198Z,31.24
2023-08-13T12:50:57.251Z,31.40
2023-08-13T12:53:24.363Z,31.09
2023-08-13T12:55:56.257Z,32.19
2023-08-13T12:58:23.317Z,30.93
2023-08-13T13:00:50.050Z,30.52
2023-08-13T13:03:17.568Z,30.39
2023-08-13T13:09:16.993Z,30.20
2023-08-13T13:11:47.154Z,30.59
2023-08-13T13:14:13.862Z,30.03
2023-08-13T13:16:40.656Z,30.97
2023-08-13T13:19:19.024Z,30.54
2023-08-13T13:21:46.102Z,31.87
2023-08-13T13:24:12.919Z,31.50
2023-08-13T13:26:39.539Z,30.97
2023-08-13T13:29:06.546Z,31.01
2023-08-13T13:31:33.316Z,31.17
2023-08-13T13:33:59.959Z,30.48
2023-08-13T13:36:26.865Z,30.91
2023-08-13T13:38:53.699Z,30.56
2023-08-13T13:41:20.536Z,31.28
2023-08-13T13:43:47.233Z,31.45
2023-08-13T13:46:14.210Z,32.65
2023-08-13T13:48:40.873Z,32.20
2023-08-13T13:51:07.539Z,29.82
2023-08-13T13:53:34.452Z,30.32
2023-08-13T13:56:01.233Z,30.28
2023-08-13T13:58:28.154Z,29.46
2023-08-13T14:00:55.700Z,30.54
2023-08-13T14:03:22.594Z,30.55
2023-08-13T14:05:55.836Z,31.33
2023-08-13T14:08:23.226Z,31.12
2023-08-13T14:11:08.353Z,32.48
2023-08-13T14:13:35.242Z,31.90
2023-08-13T14:16:03.878Z,32.18
2023-08-13T14:18:30.870Z,33.04
2023-08-13T14:20:57.763Z,33.11
2023-08-13T14:23:24.453Z,32.79
2023-08-13T14:25:51.402Z,33.37
2023-08-13T14:28:18.291Z,33.44
2023-08-13T14:33:26.092Z,33.61
2023-08-13T14:35:57.856Z,34.08
2023-08-13T14:38:34.221Z,33.60
2023-08-13T14:41:01.278Z,34.27
2023-08-13T14:43:28.741Z,34.36
2023-08-13T14:46:00.469Z,33.54
2023-08-13T14:48:27.633Z,34.55
2023-08-13T14:50:54.335Z,35.15
2023-08-13T14:53:21.092Z,34.47
2023-08-13T14:55:47.984Z,35.62
2023-08-13T15:00:55.912Z,36.76
2023-08-13T15:03:22.635Z,37.74
2023-08-13T15:05:50.962Z,37.02
2023-08-13T15:08:18.410Z,38.01
2023-08-13T15:10:48.530Z,37.88
2023-08-13T15:13:20.198Z,38.54
2023-08-13T15:15:47.107Z,39.23
2023-08-13T15:18:14.027Z,39.08
2023-08-13T15:20:40.636Z,39.45
2023-08-13T15:23:07.505Z,39.53
2023-08-13T15:25:44.914Z,40.50
2023-08-13T15:28:21.787Z,39.80
2023-08-13T15:30:48.518Z,42.29
2023-08-13T15:33:15.236Z,43.15
2023-08-13T15:35:55.687Z,41.15
2023-08-13T15:38:23.181Z,41.02
2023-08-13T15:40:50.336Z,41.02
2023-08-13T15:43:17.147Z,40.46
2023-08-13T15:45:43.998Z,41.05
2023-08-13T15:48:10.976Z,42.92
2023-08-13T15:50:37.816Z,41.28
2023-08-13T15:53:04.803Z,41.85
2023-08-13T15:55:34.679Z,42.92
2023-08-13T15:58:01.631Z,42.52
2023-08-13T16:00:28.716Z,43.99
2023-08-13T16:02:56.144Z,43.07
2023-08-13T16:05:23.010Z,43.50
2023-08-13T16:08:14.928Z,43.47
2023-08-13T16:10:41.769Z,44.45
2023-08-13T16:13:08.560Z,45.90
2023-08-13T16:15:35.304Z,45.53
2023-08-13T16:18:02.613Z,47.14
2023-08-13T16:20:29.469Z,46.91
2023-08-13T16:22:56.174Z,47.75
2023-08-13T16:25:22.929Z,48.62
2023-08-13T16:27:57.834Z,48.96
2023-08-13T16:30:24.573Z,48.45
2023-08-13T16:32:51.255Z,49.77
2023-08-13T16:35:29.472Z,49.54
2023-08-13T16:38:05.107Z,50.19
2023-08-13T16:40:31.952Z,52.46
2023-08-13T16:43:07.418Z,54.95
2023-08-13T16:45:36.155Z,54.72
2023-08-13T16:48:09.205Z,52.07
2023-08-13T16:50:36.015Z,52.02
2023-08-13T16:53:05.901Z,52.35
2023-08-13T16:56:04.287Z,53.82
2023-08-13T16:58:50.132Z,55.36
2023-08-13T17:01:16.926Z,53.53
2023-08-13T17:03:50.583Z,55.26
2023-08-13T17:06:17.310Z,54.43
2023-08-13T17:08:48.929Z,55.37
2023-08-13T17:11:16.136Z,56.18
2023-08-13T17:13:42.912Z,55.27
2023-08-13T17:16:09.912Z,58.77
2023-08-13T17:18:36.648Z,60.43
2023-08-13T17:21:03.608Z,58.77
2023-08-13T17:23:30.647Z,59.05
2023-08-13T17:25:57.331Z,59.41
2023-08-13T17:28:24.020Z,59.70
2023-08-13T17:30:52.035Z,61.14
2023-08-13T17:33:18.777Z,62.50
2023-08-13T17:38:27.148Z,62.49
2023-08-13T17:40:54.302Z,62.97
2023-08-13T17:43:21.042Z,66.06
2023-08-13T17:45:47.859Z,67.20
2023-08-13T17:48:16.495Z,67.56
2023-08-13T17:50:44.655Z,69.29
2023-08-13T17:53:12.817Z,69.31
2023-08-13T17:55:41.007Z,70.09
2023-08-13T17:58:12.893Z,71.62
2023-08-13T18:00:39.527Z,72.15
2023-08-13T18:03:06.349Z,71.95
2023-08-13T18:05:33.158Z,72.06
2023-08-13T18:08:12.193Z,75.15
2023-08-13T18:10:42.307Z,76.28
2023-08-13T18:13:09.123Z,77.37
2023-08-13T18:15:35.795Z,76.83
2023-08-13T18:18:13.295Z,74.70
2023-08-13T18:20:40.532Z,75.29
2023-08-13T18:23:07.339Z,76.20
2023-08-13T18:25:34.066Z,75.57
2023-08-13T18:28:02.390Z,76.00
2023-08-13T18:30:29.694Z,72.97
2023-08-13T18:32:56.507Z,69.63
2023-08-13T18:35:23.755Z,68.77
2023-08-13T18:37:50.480Z,67.51
2023-08-13T18:40:17.158Z,67.01
2023-08-13T18:42:44.152Z,67.63
2023-08-13T18:45:11.143Z,69.22
2023-08-13T18:47:37.997Z,67.10
2023-08-13T18:50:05.186Z,72.36
2023-08-13T18:52:44.790Z,73.84
2023-08-13T18:55:11.946Z,74.13
2023-08-13T18:58:00.474Z,73.29
2023-08-13T19:00:27.874Z,70.86
2023-08-13T19:02:54.718Z,69.43
2023-08-13T19:05:21.703Z,68.88
2023-08-13T19:07:48.752Z,70.61
2023-08-13T19:10:15.607Z,67.90
2023-08-13T19:12:42.618Z,68.84
2023-08-13T19:15:11.104Z,66.71
2023-08-13T19:17:37.946Z,68.14
2023-08-13T19:20:06.340Z,69.10
2023-08-13T19:25:15.153Z,66.35
2023-08-13T19:27:47.906Z,65.90
2023-08-13T19:30:14.832Z,67.02
2023-08-13T19:32:41.988Z,67.28
2023-08-13T19:35:09.461Z,67.00
2023-08-13T19:37:36.186Z,67.00
2023-08-13T19:40:09.323Z,68.27
2023-08-13T19:42:36.248Z,73.24
2023-08-13T19:45:04.238Z,73.33
2023-08-13T19:47:31.294Z,73.33
2023-08-13T19:49:58.799Z,71.34
2023-08-13T19:55:21.038Z,73.02
2023-08-13T19:58:09.495Z,73.71
2023-08-13T20:00:36.697Z,72.62
2023-08-13T20:03:03.595Z,71.81
2023-08-13T20:05:30.607Z,70.40
2023-08-13T20:08:06.575Z,70.95
2023-08-13T20:10:33.487Z,71.06
2023-08-13T20:13:00.509Z,72.68
2023-08-13T20:15:27.697Z,73.95
2023-08-13T20:17:54.846Z,74.11
2023-08-13T20:20:21.806Z,72.21
2023-08-13T20:22:49.195Z,71.77
2023-08-13T20:25:27.779Z,73.06
2023-08-13T20:27:54.696Z,73.64
2023-08-13T20:30:21.711Z,75.04
2023-08-13T20:32:49.482Z,75.81
2023-08-13T20:35:21.899Z,73.92
2023-08-13T20:37:48.708Z,73.53
2023-08-13T20:40:15.474Z,76.41
2023-08-13T20:42:42.610Z,77.98
2023-08-13T20:45:11.593Z,76.17
2023-08-13T20:47:38.500Z,75.84
2023-08-13T20:50:07.661Z,73.37
2023-08-13T20:52:44.303Z,73.65
2023-08-13T20:55:11.074Z,74.93
2023-08-13T20:57:37.953Z,72.68
2023-08-13T21:00:08.214Z,72.51
2023-08-13T21:02:34.966Z,74.95
2023-08-13T21:05:01.654Z,73.84
2023-08-13T21:07:43.273Z,74.26
2023-08-13T21:45:36.957Z,76.17
2023-08-13T21:48:03.714Z,75.07
2023-08-13T21:50:30.387Z,72.88
2023-08-13T21:52:57.144Z,73.41
2023-08-13T21:55:23.779Z,75.28
2023-08-13T21:57:50.432Z,74.33
2023-08-13T22:00:17.414Z,75.53
2023-08-13T22:02:44.656Z,77.98
2023-08-13T22:05:11.701Z,78.08
2023-08-13T22:07:38.453Z,79.51
2023-08-13T22:10:05.391Z,81.05
2023-08-13T22:12:32.316Z,82.95
2023-08-13T22:15:01.217Z,82.54
2023-08-13T22:17:27.984Z,83.28
2023-08-13T22:19:59.067Z,80.58
2023-08-13T22:22:29.481Z,81.24
2023-08-13T22:24:56.200Z,82.60
2023-08-13T22:27:22.979Z,80.19
2023-08-13T22:29:49.696Z,82.40
2023-08-13T22:32:16.962Z,81.02
2023-08-13T22:34:44.044Z,84.31
2023-08-13T22:37:11.321Z,82.78
2023-08-13T22:39:38.247Z,83.04
2023-08-13T22:42:05.188Z,83.48
2023-08-13T22:44:31.928Z,81.50
2023-08-13T22:46:58.621Z,81.45
2023-08-13T22:49:32.157Z,79.39
2023-08-13T22:51:58.850Z,81.93
2023-08-13T22:54:25.892Z,81.20
2023-08-13T22:56:52.681Z,81.89
2023-08-13T22:59:19.434Z,84.65
2023-08-13T23:01:46.336Z,82.67
2023-08-13T23:04:13.155Z,83.61
2023-08-13T23:06:40.308Z,89.90
2023-08-13T23:09:10.074Z,89.56
2023-08-13T23:11:36.949Z,86.54
2023-08-13T23:14:04.784Z,86.52
2023-08-13T23:16:32.001Z,84.73
2023-08-13T23:18:58.828Z,85.21
2023-08-13T23:21:28.475Z,83.83
2023-08-13T23:23:57.429Z,87.73
2023-08-13T23:26:25.344Z,86.63
2023-08-13T23:28:56.327Z,88.23
2023-08-13T23:31:23.097Z,87.62
2023-08-13T23:33:50.175Z,83.58
2023-08-13T23:36:16.934Z,83.90
2023-08-13T23:38:43.980Z,85.30
2023-08-13T23:41:10.922Z,86.22
2023-08-13T23:43:38.513Z,86.87
2023-08-13T23:46:05.839Z,87.09
2023-08-13T23:48:32.578Z,86.31
2023-08-13T23:51:02.989Z,89.12
2023-08-13T23:53:32.993Z,90.04
2023-08-13T23:56:03.169Z,86.83
2023-08-13T23:58:29.822Z,84.60
